Time;durP1;ratioP1;P1;durP2;ratioP2;P2;SDS_P1;SDS_P2;PMS_P1;PMS_P2;Temp;Humidity;BMP_temperature;BMP_pressure;BME280_temperature;BME280_humidity;BME280_pressure;Samples;Min_cycle;Max_cycle;Signal;HPM_P1;HPM_P2
2021/07/08 00:01:53;;;;;;;8.57;7.65;;;15.20;99.90;;;;;;5126016;28;20132;-68
2021/07/08 00:04:19;;;;;;;10.00;8.90;;;15.30;99.90;;;;;;5125830;28;20044;-67
2021/07/08 00:06:46;;;;;;;9.93;8.75;;;15.30;99.90;;;;;;5126101;28;20088;-68
2021/07/08 00:09:12;;;;;;;7.80;7.07;;;15.30;99.90;;;;;;5125836;28;20043;-68
2021/07/08 00:11:38;;;;;;;7.00;6.40;;;15.30;99.90;;;;;;5126351;28;20505;-68
2021/07/08 00:14:05;;;;;;;6.93;6.13;;;15.10;99.90;;;;;;5126787;28;20069;-68
2021/07/08 00:16:32;;;;;;;8.95;8.20;;;15.00;99.90;;;;;;5126184;28;20521;-68
2021/07/08 00:18:58;;;;;;;8.07;7.28;;;14.70;99.90;;;;;;5126005;28;20040;-67
2021/07/08 00:21:25;;;;;;;10.77;9.30;;;14.70;99.90;;;;;;5118312;28;20069;-68
2021/07/08 00:23:52;;;;;;;10.85;8.85;;;14.60;99.90;;;;;;5126039;28;20103;-68
2021/07/08 00:26:18;;;;;;;10.95;8.07;;;14.60;99.90;;;;;;5125228;28;20114;-68
2021/07/08 00:28:44;;;;;;;8.63;7.72;;;14.70;99.90;;;;;;5125740;28;20047;-68
2021/07/08 00:31:10;;;;;;;8.57;7.55;;;14.80;99.90;;;;;;5125375;28;20047;-68
2021/07/08 00:33:37;;;;;;;8.88;7.97;;;14.80;99.90;;;;;;5126129;27;20050;-68
2021/07/08 00:36:03;;;;;;;8.80;8.00;;;14.80;99.90;;;;;;5115667;28;20125;-68
2021/07/08 00:38:29;;;;;;;8.05;7.25;;;14.80;99.90;;;;;;5125450;28;20109;-68
2021/07/08 00:40:55;;;;;;;7.43;6.72;;;14.80;99.90;;;;;;5125413;28;20048;-68
2021/07/08 00:43:21;;;;;;;8.82;7.05;;;14.80;99.90;;;;;;5124664;28;20059;-68
2021/07/08 00:45:47;;;;;;;8.68;7.78;;;14.70;99.90;;;;;;5125245;28;20035;-68
2021/07/08 00:48:13;;;;;;;7.82;6.35;;;14.70;99.90;;;;;;5125106;28;20050;-67
2021/07/08 00:50:42;;;;;;;7.18;6.57;;;14.70;99.90;;;;;;5124564;28;20071;-68
2021/07/08 00:53:12;;;;;;;7.93;7.07;;;14.60;99.90;;;;;;5126268;28;20051;-68
2021/07/08 00:55:40;;;;;;;8.02;6.50;;;14.50;99.90;;;;;;5125116;28;20043;-68
2021/07/08 00:58:09;;;;;;;6.60;6.00;;;14.50;99.90;;;;;;5124170;28;20043;-68
2021/07/08 01:00:37;;;;;;;8.43;7.43;;;14.40;99.90;;;;;;5126273;28;20047;-68
2021/07/08 01:03:08;;;;;;;9.38;8.35;;;14.40;99.90;;;;;;5124937;28;20492;-68
2021/07/08 01:05:37;;;;;;;7.25;6.50;;;14.30;99.90;;;;;;5125936;28;20047;-68
2021/07/08 01:08:08;;;;;;;7.40;6.70;;;14.20;99.90;;;;;;5125863;28;20040;-68
2021/07/08 01:10:34;;;;;;;7.55;6.85;;;14.10;99.90;;;;;;5107088;28;20047;-68
2021/07/08 01:13:00;;;;;;;7.03;6.32;;;14.00;99.90;;;;;;5125724;28;20047;-68
2021/07/08 01:15:26;;;;;;;6.75;5.97;;;13.90;99.90;;;;;;5125259;28;20039;-69
2021/07/08 01:17:52;;;;;;;6.03;5.43;;;13.90;99.90;;;;;;5123646;28;20507;-68
2021/07/08 01:20:21;;;;;;;6.32;5.68;;;13.80;99.90;;;;;;5121051;28;20059;-68
2021/07/08 01:22:57;;;;;;;6.23;5.63;;;13.80;99.90;;;;;;5117676;28;20054;-68
2021/07/08 01:25:28;;;;;;;6.03;5.43;;;13.90;99.90;;;;;;5125751;28;20074;-68
2021/07/08 01:27:55;;;;;;;6.88;5.82;;;14.00;99.90;;;;;;5124427;28;20051;-68
2021/07/08 01:30:21;;;;;;;7.43;6.82;;;14.00;99.90;;;;;;5125962;28;20043;-68
2021/07/08 01:32:48;;;;;;;8.65;7.47;;;14.10;99.90;;;;;;5125539;28;20044;-68
2021/07/08 01:35:14;;;;;;;7.80;7.00;;;14.10;99.90;;;;;;5124601;28;20075;-68
2021/07/08 01:37:40;;;;;;;7.05;6.40;;;14.10;99.90;;;;;;5125059;28;20048;-68
2021/07/08 01:40:09;;;;;;;100.55;8.77;;;14.10;99.90;;;;;;5125086;28;20411;-68
2021/07/08 01:42:36;;;;;;;12.07;6.78;;;14.10;99.90;;;;;;5118492;28;20543;-68
2021/07/08 01:45:04;;;;;;;6.20;5.68;;;14.00;99.90;;;;;;5117913;28;20053;-67
2021/07/08 01:47:31;;;;;;;7.00;6.30;;;13.90;99.90;;;;;;5110908;28;20040;-67
2021/07/08 01:49:57;;;;;;;6.20;5.60;;;13.90;99.90;;;;;;5125119;28;20036;-67
2021/07/08 01:52:23;;;;;;;7.93;6.43;;;13.90;99.90;;;;;;5125383;28;20059;-68
2021/07/08 01:54:49;;;;;;;6.63;5.97;;;14.00;99.90;;;;;;5140893;28;20138;-68
2021/07/08 01:57:15;;;;;;;6.20;5.70;;;14.00;99.90;;;;;;5124202;28;20043;-67
2021/07/08 01:59:41;;;;;;;6.80;6.05;;;14.00;99.90;;;;;;5124763;28;20039;-68
2021/07/08 02:02:06;;;;;;;5.30;4.80;;;14.10;99.90;;;;;;5124702;28;20044;-68
2021/07/08 02:04:32;;;;;;;5.47;5.00;;;14.00;99.90;;;;;;5123471;28;20055;-68
2021/07/08 02:06:58;;;;;;;5.35;4.85;;;13.90;99.90;;;;;;5124992;28;20047;-68
2021/07/08 02:09:24;;;;;;;7.20;4.80;;;13.90;99.90;;;;;;5124965;28;20074;-67
2021/07/08 02:11:50;;;;;;;5.63;5.13;;;13.90;99.90;;;;;;5124442;28;20479;-68
2021/07/08 02:14:16;;;;;;;6.75;5.85;;;14.00;99.90;;;;;;5127286;28;20046;-68
2021/07/08 02:16:43;;;;;;;6.97;6.35;;;14.00;99.90;;;;;;5128122;28;20047;-67
2021/07/08 02:19:08;;;;;;;7.60;6.90;;;13.90;99.90;;;;;;5128080;28;20040;-68
2021/07/08 02:21:34;;;;;;;6.20;5.60;;;13.90;99.90;;;;;;5115594;28;20066;-68
2021/07/08 02:24:00;;;;;;;5.50;5.00;;;14.00;99.90;;;;;;5128169;28;20239;-68
2021/07/08 02:26:26;;;;;;;5.07;4.68;;;14.00;99.90;;;;;;5127907;28;20044;-68
2021/07/08 02:28:52;;;;;;;5.03;4.53;;;14.10;99.90;;;;;;5128674;28;20043;-67
2021/07/08 02:31:18;;;;;;;5.07;4.57;;;14.10;99.90;;;;;;5128679;28;20407;-68
2021/07/08 02:33:44;;;;;;;4.35;3.88;;;14.20;99.90;;;;;;5129019;28;20047;-68
2021/07/08 02:36:12;;;;;;;4.00;3.70;;;14.10;99.90;;;;;;5126461;28;20108;-68
2021/07/08 02:38:38;;;;;;;4.35;3.03;;;14.10;99.90;;;;;;5127906;28;20071;-68
2021/07/08 02:41:05;;;;;;;3.58;3.28;;;14.10;99.90;;;;;;5127515;28;20134;-67
2021/07/08 02:43:32;;;;;;;3.28;3.05;;;14.10;99.90;;;;;;5121764;28;20082;-67
2021/07/08 02:45:58;;;;;;;3.90;3.50;;;13.90;99.90;;;;;;5127683;28;20047;-68
2021/07/08 02:48:26;;;;;;;3.90;3.60;;;13.90;99.90;;;;;;5127846;28;20040;-67
2021/07/08 02:50:55;;;;;;;4.15;3.72;;;13.70;99.90;;;;;;5128194;28;20043;-67
2021/07/08 02:53:22;;;;;;;4.15;3.75;;;13.60;99.90;;;;;;5128039;28;20072;-68
2021/07/08 02:55:48;;;;;;;5.85;3.60;;;13.50;99.90;;;;;;5127384;28;20043;-68
2021/07/08 02:58:14;;;;;;;5.05;4.05;;;13.60;99.90;;;;;;5127114;28;20934;-68
2021/07/08 03:00:40;;;;;;;4.50;4.05;;;13.60;99.90;;;;;;5127476;28;20435;-67
2021/07/08 03:03:06;;;;;;;4.35;3.95;;;13.60;99.90;;;;;;5128527;28;20098;-68
2021/07/08 03:05:32;;;;;;;4.82;4.43;;;13.60;99.90;;;;;;5128105;28;20039;-67
2021/07/08 03:07:59;;;;;;;6.68;5.03;;;13.60;99.90;;;;;;5128197;28;20075;-68
2021/07/08 03:10:27;;;;;;;6.32;5.47;;;13.60;99.90;;;;;;5127486;28;20092;-67
2021/07/08 03:12:53;;;;;;;6.78;5.70;;;13.60;99.90;;;;;;5127000;27;20040;-67
2021/07/08 03:15:19;;;;;;;7.75;5.47;;;13.60;99.90;;;;;;5127485;28;20044;-67
2021/07/08 03:17:46;;;;;;;5.07;4.68;;;13.60;99.90;;;;;;5127890;28;20044;-67
2021/07/08 03:20:15;;;;;;;5.20;4.70;;;13.50;99.90;;;;;;5124668;28;20048;-68
2021/07/08 03:22:42;;;;;;;6.22;5.63;;;13.50;99.90;;;;;;5125239;28;20043;-67
2021/07/08 03:25:12;;;;;;;4.97;4.53;;;13.50;99.90;;;;;;5127031;28;20063;-68
2021/07/08 03:27:40;;;;;;;5.10;4.43;;;13.50;99.90;;;;;;5126976;28;20107;-67
2021/07/08 03:30:09;;;;;;;4.97;4.05;;;13.40;99.90;;;;;;5126952;28;20112;-68
2021/07/08 03:32:35;;;;;;;5.38;4.55;;;13.30;99.90;;;;;;5126553;28;20035;-67
2021/07/08 03:35:01;;;;;;;6.13;4.53;;;13.30;99.90;;;;;;5120504;28;20051;-68
2021/07/08 03:37:27;;;;;;;5.32;3.90;;;13.30;99.90;;;;;;5125288;28;20091;-67
2021/07/08 03:39:53;;;;;;;4.03;3.30;;;13.30;99.90;;;;;;5126663;28;20105;-67
2021/07/08 03:42:19;;;;;;;4.25;3.38;;;13.20;99.90;;;;;;5126206;28;20114;-67
2021/07/08 03:44:45;;;;;;;6.13;4.45;;;13.20;99.90;;;;;;5126864;28;20039;-67
2021/07/08 03:47:10;;;;;;;6.05;4.70;;;13.20;99.90;;;;;;5127660;28;20064;-68
2021/07/08 03:49:36;;;;;;;5.57;4.85;;;13.20;99.90;;;;;;5127176;28;20548;-68
2021/07/08 03:52:03;;;;;;;6.07;4.97;;;13.30;99.90;;;;;;5125313;28;20091;-67
2021/07/08 03:54:29;;;;;;;5.45;4.93;;;13.40;99.90;;;;;;5126554;28;20039;-68
2021/07/08 03:56:55;;;;;;;5.40;4.90;;;13.50;99.90;;;;;;5124962;28;20062;-67
2021/07/08 03:59:21;;;;;;;6.35;5.68;;;13.50;99.90;;;;;;5126338;28;20043;-67
2021/07/08 04:01:47;;;;;;;6.00;5.40;;;13.60;99.90;;;;;;5126037;28;20039;-68
2021/07/08 04:04:12;;;;;;;5.43;4.93;;;13.50;99.90;;;;;;5126135;28;20044;-68
2021/07/08 04:06:38;;;;;;;5.22;4.72;;;13.60;99.90;;;;;;5126128;28;20099;-68
2021/07/08 04:09:04;;;;;;;5.10;4.60;;;13.40;99.90;;;;;;5125919;28;20051;-67
2021/07/08 04:11:34;;;;;;;5.93;4.88;;;13.50;99.90;;;;;;5125793;28;20051;-67
2021/07/08 04:14:00;;;;;;;5.78;5.22;;;13.60;99.90;;;;;;5125014;28;20442;-67
2021/07/08 04:16:27;;;;;;;6.15;5.60;;;13.70;99.90;;;;;;5126951;28;20051;-68
2021/07/08 04:18:57;;;;;;;7.43;6.72;;;13.70;99.90;;;;;;5125789;28;20073;-68
2021/07/08 04:21:23;;;;;;;5.85;5.35;;;13.70;99.90;;;;;;5114325;27;20111;-67
2021/07/08 04:23:49;;;;;;;7.38;6.55;;;13.70;99.90;;;;;;5125938;28;20040;-68
2021/07/08 04:26:15;;;;;;;9.48;8.10;;;13.70;99.90;;;;;;5125830;28;20071;-67
2021/07/08 04:28:42;;;;;;;8.23;7.47;;;13.80;99.90;;;;;;5125619;28;20027;-67
2021/07/08 04:31:09;;;;;;;9.00;8.10;;;13.80;99.90;;;;;;5124907;28;20036;-67
2021/07/08 04:33:39;;;;;;;8.38;7.47;;;13.90;99.90;;;;;;5126013;28;20044;-68
2021/07/08 04:36:06;;;;;;;7.50;6.80;;;13.90;99.90;;;;;;5121259;28;20055;-67
2021/07/08 04:38:34;;;;;;;7.97;7.17;;;14.00;99.90;;;;;;5125398;28;20043;-68
2021/07/08 04:41:21;;;;;;;7.85;7.07;;;14.00;99.90;;;;;;5124286;28;20040;-67
2021/07/08 04:43:47;;;;;;;9.15;7.53;;;14.00;99.90;;;;;;5116339;28;20128;-68
2021/07/08 04:46:14;;;;;;;9.60;8.57;;;14.10;99.90;;;;;;5123537;28;20492;-68
2021/07/08 04:48:42;;;;;;;9.77;8.65;;;14.20;99.90;;;;;;5124597;28;20040;-67
2021/07/08 04:51:08;;;;;;;8.57;7.78;;;14.20;99.90;;;;;;5122613;28;20035;-67
2021/07/08 04:53:36;;;;;;;9.07;8.23;;;14.20;99.90;;;;;;5121683;28;20050;-67
2021/07/08 04:56:02;;;;;;;8.65;7.25;;;14.20;99.90;;;;;;5120605;28;20067;-67
2021/07/08 04:58:27;;;;;;;5.43;4.90;;;14.20;99.90;;;;;;5124041;28;20051;-68
2021/07/08 05:00:53;;;;;;;4.88;4.45;;;14.30;99.90;;;;;;5121682;28;20048;-67
2021/07/08 05:03:19;;;;;;;5.50;5.10;;;14.40;99.90;;;;;;5124289;28;20065;-67
2021/07/08 05:05:47;;;;;;;5.80;5.38;;;14.40;99.90;;;;;;5125894;28;20053;-68
2021/07/08 05:08:12;;;;;;;6.05;5.55;;;14.50;99.90;;;;;;5125010;28;20059;-67
2021/07/08 05:10:38;;;;;;;6.97;6.47;;;14.50;99.90;;;;;;5123356;28;20043;-67
2021/07/08 05:13:04;;;;;;;7.18;6.57;;;14.50;99.90;;;;;;5120474;28;20099;-67
2021/07/08 05:15:30;;;;;;;7.13;6.55;;;14.60;99.90;;;;;;5102474;28;20100;-65
2021/07/08 05:17:56;;;;;;;7.88;7.18;;;14.60;99.90;;;;;;5118200;28;20040;-70
2021/07/08 05:20:23;;;;;;;9.18;8.35;;;14.70;99.90;;;;;;5119346;28;20042;-68
2021/07/08 05:22:55;;;;;;;11.63;9.20;;;14.70;99.90;;;;;;5125066;28;20047;-67
2021/07/08 05:25:21;;;;;;;16.42;12.63;;;14.80;99.90;;;;;;5118264;28;20067;-68
2021/07/08 05:27:47;;;;;;;15.13;13.70;;;14.90;99.90;;;;;;5123817;28;20066;-68
2021/07/08 05:30:13;;;;;;;17.73;15.95;;;15.10;99.90;;;;;;5123372;28;20442;-69
2021/07/08 05:32:39;;;;;;;17.15;15.48;;;15.20;99.90;;;;;;5122503;28;20044;-68
2021/07/08 05:35:06;;;;;;;16.33;14.68;;;15.30;99.90;;;;;;5115397;28;20055;-70
2021/07/08 05:37:32;;;;;;;16.65;14.98;;;15.40;99.90;;;;;;5112655;28;20105;-69
2021/07/08 05:39:58;;;;;;;15.55;14.00;;;15.50;99.90;;;;;;5123967;28;20062;-68
2021/07/08 05:42:24;;;;;;;15.32;13.93;;;15.60;99.90;;;;;;5120754;28;20039;-69
2021/07/08 05:44:50;;;;;;;15.82;13.23;;;15.60;99.90;;;;;;5115483;28;20047;-69
2021/07/08 05:47:16;;;;;;;14.55;13.15;;;15.70;99.90;;;;;;5122715;28;20111;-69
2021/07/08 05:49:42;;;;;;;15.00;13.43;;;15.80;99.90;;;;;;5124852;28;20049;-69
2021/07/08 05:52:08;;;;;;;17.38;14.73;;;15.80;99.90;;;;;;5127294;28;20063;-69
2021/07/08 05:54:34;;;;;;;15.60;14.00;;;15.90;99.90;;;;;;5123664;27;20043;-70
2021/07/08 05:57:00;;;;;;;16.00;14.40;;;16.00;99.90;;;;;;5121894;28;20670;-70
2021/07/08 05:59:28;;;;;;;17.52;15.73;;;16.10;99.90;;;;;;5125634;28;20040;-69
2021/07/08 06:01:55;;;;;;;18.40;16.35;;;16.10;99.90;;;;;;5123124;28;20176;-69
2021/07/08 06:04:21;;;;;;;17.35;15.57;;;16.30;99.90;;;;;;5140628;27;20140;-69
2021/07/08 06:06:47;;;;;;;16.80;15.05;;;16.40;99.90;;;;;;5123431;28;20465;-69
2021/07/08 06:09:13;;;;;;;17.70;15.95;;;16.40;99.90;;;;;;5125168;28;20104;-68
2021/07/08 06:11:38;;;;;;;17.38;15.18;;;16.50;99.90;;;;;;5128284;28;20047;-67
2021/07/08 06:14:04;;;;;;;16.80;15.10;;;16.60;99.90;;;;;;5127013;28;20078;-68
2021/07/08 06:16:30;;;;;;;22.23;18.40;;;16.70;99.90;;;;;;5125993;28;20054;-68
2021/07/08 06:18:56;;;;;;;17.80;16.02;;;16.80;99.90;;;;;;5124604;28;20039;-70
2021/07/08 06:21:22;;;;;;;20.02;17.90;;;16.80;99.90;;;;;;5116123;28;20092;-71
2021/07/08 06:23:47;;;;;;;16.65;15.07;;;16.90;99.90;;;;;;5109640;27;20051;-70
2021/07/08 06:26:13;;;;;;;17.92;16.02;;;16.90;99.90;;;;;;5123918;27;20047;-70
2021/07/08 06:28:41;;;;;;;19.52;16.98;;;17.00;99.90;;;;;;5107722;27;20043;-70
2021/07/08 06:31:07;;;;;;;19.98;17.80;;;17.00;99.90;;;;;;5124937;27;20043;-70
2021/07/08 06:33:33;;;;;;;15.75;13.27;;;17.20;99.90;;;;;;5133047;27;20050;-70
2021/07/08 06:35:59;;;;;;;18.50;13.80;;;17.30;99.90;;;;;;5098751;28;20560;-67
2021/07/08 06:38:25;;;;;;;14.35;12.88;;;17.30;99.90;;;;;;5111893;28;20047;-69
2021/07/08 06:40:50;;;;;;;14.45;12.95;;;17.40;99.90;;;;;;5110274;27;20141;-69
2021/07/08 06:43:16;;;;;;;14.13;11.55;;;17.40;99.90;;;;;;5134963;27;20048;-70
2021/07/08 06:45:42;;;;;;;15.35;13.18;;;17.50;99.90;;;;;;5111102;28;20070;-69
2021/07/08 06:48:09;;;;;;;14.48;11.55;;;17.70;99.90;;;;;;5120200;28;20411;-69
2021/07/08 06:50:36;;;;;;;13.77;11.38;;;17.70;99.90;;;;;;5119506;28;20074;-69
2021/07/08 06:53:03;;;;;;;12.85;10.15;;;17.80;99.90;;;;;;5098676;28;20132;-70
2021/07/08 06:55:30;;;;;;;12.73;9.20;;;17.90;99.90;;;;;;5119493;28;20386;-69
2021/07/08 06:57:56;;;;;;;11.18;8.95;;;17.90;99.90;;;;;;5125280;27;20147;-70
2021/07/08 07:00:38;;;;;;;11.57;9.95;;;18.00;99.90;;;;;;5121321;28;20101;-69
2021/07/08 07:03:05;;;;;;;12.65;10.13;;;18.00;99.90;;;;;;5101927;28;20116;-69
2021/07/08 07:05:32;;;;;;;10.23;8.80;;;18.10;99.90;;;;;;5117173;28;20052;-69
2021/07/08 07:07:58;;;;;;;12.25;9.52;;;18.10;99.90;;;;;;5122634;27;20051;-67
2021/07/08 07:10:26;;;;;;;13.77;10.60;;;18.20;99.90;;;;;;5108087;28;20040;-69
2021/07/08 07:12:57;;;;;;;14.18;8.82;;;18.30;99.90;;;;;;5118356;27;20062;-69
2021/07/08 07:15:26;;;;;;;10.90;9.90;;;18.40;99.90;;;;;;5104643;28;20042;-69
2021/07/08 07:17:52;;;;;;;10.77;9.23;;;18.50;99.90;;;;;;5118917;27;20072;-70
2021/07/08 07:20:19;;;;;;;11.32;8.45;;;18.60;99.90;;;;;;5118138;28;20036;-69
2021/07/08 07:22:47;;;;;;;9.82;8.30;;;18.70;99.90;;;;;;5115713;27;20058;-70
2021/07/08 07:25:15;;;;;;;10.70;9.55;;;18.80;99.90;;;;;;5109722;28;20130;-69
2021/07/08 07:27:41;;;;;;;11.68;10.60;;;18.80;99.90;;;;;;5114768;27;20292;-70
2021/07/08 07:30:08;;;;;;;12.35;7.13;;;18.80;99.90;;;;;;5116202;27;20462;-69
2021/07/08 07:32:34;;;;;;;8.88;6.22;;;18.90;99.90;;;;;;5111407;27;20109;-69
2021/07/08 07:35:00;;;;;;;10.88;6.20;;;19.00;99.90;;;;;;5123839;27;20051;-69
2021/07/08 07:37:26;;;;;;;7.95;5.43;;;19.00;99.90;;;;;;5102382;27;20048;-70
2021/07/08 07:39:53;;;;;;;5.80;4.55;;;19.00;99.90;;;;;;5116545;28;20456;-70
2021/07/08 07:42:19;;;;;;;6.43;5.13;;;19.00;99.90;;;;;;5121727;27;20043;-70
2021/07/08 07:44:47;;;;;;;6.55;5.13;;;19.30;99.90;;;;;;5112943;27;20047;-70
2021/07/08 07:47:16;;;;;;;6.25;5.28;;;19.30;99.90;;;;;;5122395;27;20050;-69
2021/07/08 07:49:43;;;;;;;9.50;5.75;;;19.50;99.90;;;;;;5123438;27;20062;-69
2021/07/08 07:52:12;;;;;;;7.13;4.55;;;19.70;99.90;;;;;;5111358;27;20089;-70
2021/07/08 07:54:38;;;;;;;7.03;4.88;;;19.70;99.90;;;;;;5123979;27;20093;-70
2021/07/08 07:57:06;;;;;;;7.07;4.07;;;19.70;99.90;;;;;;5108098;28;20077;-69
2021/07/08 07:59:32;;;;;;;5.85;4.53;;;19.70;99.90;;;;;;5117986;28;20052;-70
2021/07/08 08:01:58;;;;;;;7.38;4.40;;;19.70;99.90;;;;;;5117257;27;20097;-69
2021/07/08 08:04:29;;;;;;;6.13;3.88;;;19.80;99.90;;;;;;5126040;27;20499;-70
2021/07/08 08:09:39;;;;;;;7.57;4.18;;;20.10;99.90;;;;;;5110882;28;20531;-69
2021/07/08 08:12:05;;;;;;;6.10;4.10;;;20.10;99.90;;;;;;5118729;27;20074;-69
2021/07/08 08:14:31;;;;;;;6.60;4.07;;;20.10;99.90;;;;;;5125615;27;20489;-69
2021/07/08 08:16:59;;;;;;;7.00;4.93;;;20.10;99.90;;;;;;5110994;27;20048;-69
2021/07/08 08:19:24;;;;;;;7.47;5.13;;;20.20;99.90;;;;;;5121941;27;20047;-69
2021/07/08 08:21:50;;;;;;;6.32;4.68;;;20.30;99.90;;;;;;5107579;27;20062;-69
2021/07/08 08:24:16;;;;;;;9.23;3.78;;;20.40;99.90;;;;;;5127130;27;20389;-69
2021/07/08 08:26:42;;;;;;;9.38;4.93;;;20.40;99.90;;;;;;5110786;27;20058;-70
2021/07/08 08:29:08;;;;;;;6.18;4.43;;;20.60;99.90;;;;;;5111702;27;20079;-69
2021/07/08 08:31:34;;;;;;;5.55;4.35;;;20.60;99.90;;;;;;5112530;27;20498;-69
2021/07/08 08:34:00;;;;;;;7.82;4.20;;;20.70;99.90;;;;;;5129498;27;20067;-69
2021/07/08 08:36:25;;;;;;;5.30;4.32;;;20.70;99.90;;;;;;5098471;27;20432;-70
2021/07/08 08:38:51;;;;;;;8.10;4.88;;;20.70;99.90;;;;;;5125781;27;20050;-69
2021/07/08 08:41:18;;;;;;;7.82;5.30;;;20.70;99.90;;;;;;5108860;27;20053;-70
2021/07/08 08:43:44;;;;;;;7.78;4.55;;;20.70;99.90;;;;;;5109734;28;20039;-70
2021/07/08 08:46:12;;;;;;;6.18;4.10;;;20.80;99.90;;;;;;5110070;28;20077;-70
2021/07/08 08:48:38;;;;;;;6.15;4.28;;;20.80;99.90;;;;;;5132729;27;20519;-70
2021/07/08 08:51:04;;;;;;;5.55;4.78;;;20.90;99.90;;;;;;5118136;28;20074;-70
2021/07/08 08:53:30;;;;;;;7.32;4.20;;;20.80;99.90;;;;;;5123679;27;20060;-70
2021/07/08 08:55:57;;;;;;;8.30;4.13;;;20.80;99.90;;;;;;5116745;28;20063;-70
2021/07/08 08:58:24;;;;;;;5.82;3.97;;;20.80;99.90;;;;;;5106244;28;20054;-70
2021/07/08 09:00:54;;;;;;;5.65;4.13;;;20.70;99.90;;;;;;5112575;28;20541;-69
2021/07/08 09:03:26;;;;;;;8.07;4.30;;;20.70;99.90;;;;;;5118577;27;20118;-70
2021/07/08 09:06:04;;;;;;;6.22;4.47;;;20.70;99.90;;;;;;5103863;28;20505;-70
2021/07/08 09:08:30;;;;;;;7.03;4.43;;;20.80;99.90;;;;;;5124338;27;20076;-69
2021/07/08 09:11:02;;;;;;;5.75;4.60;;;20.80;99.90;;;;;;5118098;28;20745;-70
2021/07/08 09:13:43;;;;;;;6.00;4.43;;;20.90;99.90;;;;;;5076198;28;20400;-69
2021/07/08 09:16:17;;;;;;;6.38;4.38;;;21.00;99.90;;;;;;5112080;28;20062;-70
2021/07/08 09:18:54;;;;;;;5.45;4.45;;;21.00;99.90;;;;;;5086389;28;20040;-70
2021/07/08 09:21:21;;;;;;;5.07;3.22;;;21.00;99.90;;;;;;5095990;27;20125;-70
2021/07/08 09:24:05;;;;;;;5.18;3.92;;;21.00;99.90;;;;;;5124706;27;20089;-69
2021/07/08 09:26:32;;;;;;;5.78;3.97;;;21.00;99.90;;;;;;5112875;27;20543;-70
2021/07/08 09:29:10;;;;;;;4.95;3.83;;;21.10;99.90;;;;;;5124538;27;20059;-70
2021/07/08 09:31:38;;;;;;;6.03;4.45;;;21.10;99.90;;;;;;5113311;27;20063;-69
2021/07/08 09:34:23;;;;;;;6.32;4.13;;;21.10;99.90;;;;;;5129937;27;20044;-70
2021/07/08 09:37:02;;;;;;;6.90;3.92;;;21.20;99.90;;;;;;5105237;27;20058;-69
2021/07/08 09:39:40;;;;;;;6.25;4.43;;;21.30;99.90;;;;;;5118783;27;20127;-70
2021/07/08 09:42:07;;;;;;;5.07;3.95;;;21.40;99.90;;;;;;5107464;27;20047;-70
2021/07/08 09:44:34;;;;;;;6.72;3.33;;;21.60;99.90;;;;;;5137345;27;20043;-70
2021/07/08 09:47:00;;;;;;;4.22;3.40;;;21.80;99.90;;;;;;5118194;27;20061;-70
2021/07/08 09:49:28;;;;;;;7.45;3.83;;;22.00;99.90;;;;;;5126529;27;20126;-70
2021/07/08 09:51:55;;;;;;;4.32;3.60;;;22.00;99.90;;;;;;5116224;27;20061;-70
2021/07/08 09:55:14;;;;;;;7.80;3.78;;;22.10;99.90;;;;;;5122649;27;20280;-70
2021/07/08 09:57:45;;;;;;;5.00;3.47;;;22.30;99.90;;;;;;5096830;28;20344;-70
2021/07/08 10:00:24;;;;;;;3.88;3.47;;;22.40;99.90;;;;;;5119906;28;20035;-70
2021/07/08 10:02:52;;;;;;;6.00;3.60;;;22.40;99.90;;;;;;5111938;28;20048;-70
2021/07/08 10:05:19;;;;;;;5.18;3.75;;;22.40;99.90;;;;;;5135201;27;20051;-70
2021/07/08 10:07:46;;;;;;;6.03;3.80;;;22.40;99.90;;;;;;5115749;27;20043;-68
2021/07/08 10:10:14;;;;;;;5.82;3.72;;;22.40;99.90;;;;;;5124827;28;20054;-69
2021/07/08 10:12:42;;;;;;;6.25;3.90;;;22.50;99.90;;;;;;5099125;28;20043;-69
2021/07/08 10:15:10;;;;;;;6.95;3.80;;;22.40;99.90;;;;;;5128833;27;20359;-69
2021/07/08 10:17:38;;;;;;;5.10;3.55;;;22.50;99.90;;;;;;5096681;28;20051;-69
2021/07/08 10:20:06;;;;;;;7.80;5.13;;;22.60;99.90;;;;;;5115427;28;20067;-69
2021/07/08 10:22:33;;;;;;;6.20;4.88;;;22.60;99.90;;;;;;5110315;27;20050;-67
2021/07/08 10:24:59;;;;;;;6.85;5.75;;;22.60;99.90;;;;;;5132001;27;20487;-67
2021/07/08 10:27:26;;;;;;;6.43;5.70;;;22.40;99.90;;;;;;5118868;27;20045;-67
2021/07/08 10:29:53;;;;;;;6.28;5.00;;;22.30;99.90;;;;;;5131203;27;20100;-73
2021/07/08 10:32:19;;;;;;;6.20;4.95;;;22.20;99.90;;;;;;5099093;28;20127;-67
2021/07/08 10:34:52;;;;;;;6.65;5.05;;;22.20;99.90;;;;;;5105703;28;20036;-68
2021/07/08 10:37:40;;;;;;;7.43;5.30;;;22.10;99.90;;;;;;5100391;27;20626;-68
2021/07/08 10:40:23;;;;;;;7.03;4.38;;;22.10;99.90;;;;;;5109152;27;20036;-69
2021/07/08 10:42:50;;;;;;;6.50;4.95;;;22.00;99.90;;;;;;5097938;28;20081;-69
2021/07/08 10:45:21;;;;;;;6.93;4.88;;;21.90;99.90;;;;;;5112149;28;20483;-66
2021/07/08 10:47:48;;;;;;;7.40;5.07;;;21.80;99.90;;;;;;5103440;27;20590;-66
2021/07/08 10:50:35;;;;;;;6.57;4.78;;;21.70;99.90;;;;;;5101035;28;20051;-65
2021/07/08 10:53:34;;;;;;;5.72;4.93;;;21.70;99.90;;;;;;5101728;28;20048;-67
2021/07/08 10:56:05;;;;;;;;;;;21.60;99.90;;;;;;5102050;28;20258;-67
2021/07/08 10:58:44;;;;;;;6.65;5.18;;;21.50;99.90;;;;;;5122603;27;19932;-67
2021/07/08 11:01:26;;;;;;;6.95;4.88;;;21.40;99.90;;;;;;5119942;28;20055;-67
2021/07/08 11:03:55;;;;;;;6.57;4.55;;;21.40;99.90;;;;;;5096265;28;20062;-67
2021/07/08 11:06:32;;;;;;;5.70;5.10;;;21.30;99.90;;;;;;5116438;28;20053;-67
2021/07/08 11:09:24;;;;;;;9.07;5.13;;;21.30;99.90;;;;;;5121014;27;20051;-67
2021/07/08 11:11:50;;;;;;;5.80;5.20;;;21.20;99.90;;;;;;5104793;28;20127;-67
2021/07/08 11:14:26;;;;;;;5.82;5.00;;;21.20;99.90;;;;;;5110722;28;21185;-67
2021/07/08 11:17:01;;;;;;;7.60;5.43;;;21.40;99.90;;;;;;5092862;27;20043;-67
2021/07/08 11:19:27;;;;;;;7.65;5.88;;;21.50;99.90;;;;;;5129585;27;20039;-67
2021/07/08 11:21:55;;;;;;;8.65;6.05;;;21.70;99.90;;;;;;5113863;27;20069;-67
2021/07/08 11:24:24;;;;;;;8.90;7.30;;;21.70;99.90;;;;;;5118106;27;20047;-67
2021/07/08 11:26:54;;;;;;;7.22;5.90;;;21.50;99.90;;;;;;5106415;27;20043;-68
2021/07/08 11:29:47;;;;;;;8.07;6.38;;;21.40;99.90;;;;;;5132197;27;20089;-67
2021/07/08 11:32:30;;;;;;;9.32;6.05;;;21.20;99.90;;;;;;5096323;28;20043;-67
2021/07/08 11:35:00;;;;;;;9.23;7.05;;;21.10;99.90;;;;;;5125650;27;20049;-67
2021/07/08 11:37:37;;;;;;;8.88;6.68;;;21.10;99.90;;;;;;5107547;27;20047;-67
2021/07/08 11:40:06;;;;;;;9.70;6.88;;;21.00;99.90;;;;;;5124439;27;20039;-67
2021/07/08 11:42:34;;;;;;;10.33;6.30;;;20.90;99.90;;;;;;5107296;28;20055;-67
2021/07/08 11:45:11;;;;;;;7.78;6.97;;;20.80;99.90;;;;;;5118357;28;20474;-67
2021/07/08 11:47:46;;;;;;;9.73;7.50;;;20.60;99.90;;;;;;5110285;28;20143;-67
2021/07/08 11:50:19;;;;;;;10.82;7.53;;;20.50;99.90;;;;;;5111530;28;20054;-68
2021/07/08 11:52:45;;;;;;;13.57;8.40;;;20.30;99.90;;;;;;5101031;28;20047;-69
2021/07/08 11:55:12;;;;;;;16.42;9.02;;;20.20;99.90;;;;;;5120227;28;20100;-68
2021/07/08 11:58:10;;;;;;;12.88;8.60;;;19.90;99.90;;;;;;5114224;27;20047;-68
2021/07/08 12:00:43;;;;;;;11.90;9.07;;;19.70;99.90;;;;;;5052605;28;20683;-69
2021/07/08 12:03:35;;;;;;;14.27;11.70;;;19.40;99.90;;;;;;5041780;28;20049;-68
2021/07/08 12:06:11;;;;;;;11.98;10.60;;;19.40;99.90;;;;;;5037165;28;20052;-68
2021/07/08 12:08:40;;;;;;;15.32;12.15;;;19.30;99.90;;;;;;5040927;28;20063;-68
2021/07/08 12:11:11;;;;;;;15.13;11.45;;;19.30;99.90;;;;;;5057227;28;20683;-68
2021/07/08 12:13:54;;;;;;;14.95;11.25;;;19.30;99.90;;;;;;5028118;28;20118;-68
2021/07/08 12:16:39;;;;;;;12.18;9.35;;;19.50;99.90;;;;;;5051714;28;20056;-67
2021/07/08 12:19:07;;;;;;;12.27;10.98;;;19.70;99.90;;;;;;5044193;28;20124;-68
2021/07/08 12:21:34;;;;;;;16.23;12.07;;;19.90;99.90;;;;;;5056037;28;20041;-68
2021/07/08 12:24:23;;;;;;;14.32;11.85;;;20.00;99.90;;;;;;5044653;28;20048;-68
2021/07/08 12:26:50;;;;;;;14.80;11.80;;;20.20;99.90;;;;;;5055616;28;20051;-68
2021/07/08 12:29:36;;;;;;;15.43;13.05;;;20.40;99.90;;;;;;5048636;28;20057;-68
2021/07/08 12:32:13;;;;;;;13.30;11.45;;;20.60;99.90;;;;;;5047333;28;20045;-68
2021/07/08 12:34:46;;;;;;;15.55;12.43;;;20.60;99.90;;;;;;5056823;28;20242;-68
2021/07/08 12:37:16;;;;;;;13.50;11.32;;;20.70;99.90;;;;;;5074589;28;20115;-68
2021/07/08 12:39:44;;;;;;;11.30;10.25;;;20.80;99.90;;;;;;5122979;27;20044;-69
2021/07/08 12:42:18;;;;;;;13.00;10.00;;;20.90;99.90;;;;;;5095292;28;20056;-69
2021/07/08 12:44:49;;;;;;;13.95;11.35;;;20.80;99.90;;;;;;5105568;28;20039;-69
2021/07/08 12:47:16;;;;;;;12.55;10.13;;;20.70;99.90;;;;;;5109335;28;20082;-68
2021/07/08 12:49:42;;;;;;;11.15;9.98;;;20.80;99.90;;;;;;5133599;27;20039;-67
2021/07/08 12:52:12;;;;;;;10.55;8.85;;;20.90;99.90;;;;;;5093728;27;20044;-67
2021/07/08 12:54:38;;;;;;;9.48;8.45;;;21.00;99.90;;;;;;5131710;27;20031;-67